createdAt,value
2023-01-03T00:00:30.205Z,260
2023-01-03T00:05:30.113Z,260
2023-01-03T00:10:30.099Z,255
2023-01-03T00:15:30.099Z,260
2023-01-03T00:20:30.102Z,255
2023-01-03T00:25:30.126Z,250
2023-01-03T00:30:30.214Z,260
2023-01-03T00:35:30.114Z,260
2023-01-03T00:40:30.098Z,262.5
2023-01-03T00:45:33.707Z,260
2023-01-03T00:50:30.099Z,270
2023-01-03T00:55:30.098Z,262.5
2023-01-03T01:00:30.083Z,260
2023-01-03T01:05:30.113Z,260
2023-01-03T01:10:30.094Z,255
2023-01-03T01:15:30.189Z,270
2023-01-03T01:20:30.090Z,260
2023-01-03T01:25:30.105Z,262.5
2023-01-03T01:30:30.112Z,255
2023-01-03T01:35:30.097Z,265
2023-01-03T01:40:30.093Z,260
2023-01-03T01:45:30.089Z,257.5
2023-01-03T01:50:30.090Z,237.5
2023-01-03T01:55:30.104Z,220
2023-01-03T02:00:30.101Z,220
2023-01-03T02:05:30.105Z,227.5
2023-01-03T02:10:30.096Z,240
2023-01-03T02:15:30.097Z,240
2023-01-03T02:20:30.098Z,230
2023-01-03T02:25:30.097Z,220
2023-01-03T02:30:30.101Z,222.5
2023-01-03T02:35:30.102Z,217.5
2023-01-03T02:40:30.112Z,222.5
2023-01-03T02:45:30.106Z,215
2023-01-03T02:50:30.108Z,300
2023-01-03T02:55:30.104Z,300
2023-01-03T03:00:30.108Z,300
2023-01-03T03:05:30.106Z,280
2023-01-03T03:10:30.092Z,282.5
2023-01-03T03:15:30.098Z,230
2023-01-03T03:20:30.090Z,210
2023-01-03T03:25:30.115Z,210
2023-01-03T03:30:30.103Z,222.5
2023-01-03T03:35:30.095Z,235
2023-01-03T03:40:30.106Z,230
2023-01-03T03:45:30.106Z,245
2023-01-03T03:50:30.099Z,255
2023-01-03T03:55:30.097Z,237.5
2023-01-03T04:00:30.104Z,230
2023-01-03T04:05:30.113Z,230
2023-01-03T04:10:34.099Z,262.5
2023-01-03T04:15:30.107Z,297.5
2023-01-03T04:20:30.117Z,300
2023-01-03T04:25:30.148Z,300
2023-01-03T04:30:30.102Z,302.5
2023-01-03T04:35:30.099Z,305
2023-01-03T04:40:30.099Z,300
2023-01-03T04:45:30.285Z,280
2023-01-03T04:50:30.108Z,272.5
2023-01-03T04:55:30.111Z,257.5
2023-01-03T05:00:30.104Z,230
2023-01-03T05:05:30.107Z,260
2023-01-03T05:10:30.090Z,300
2023-01-03T05:15:30.113Z,245
2023-01-03T05:20:30.102Z,240
2023-01-03T05:25:30.101Z,287.5
2023-01-03T05:30:30.094Z,297.5
2023-01-03T05:35:30.100Z,305
2023-01-03T05:40:30.097Z,310
2023-01-03T05:45:30.091Z,297.5
2023-01-03T05:50:30.095Z,300
2023-01-03T05:55:30.109Z,302.5
2023-01-03T06:00:30.116Z,305
2023-01-03T06:05:30.110Z,302.5
2023-01-03T06:10:30.115Z,305
2023-01-03T06:15:30.100Z,302.5
2023-01-03T06:20:30.102Z,305
2023-01-03T06:25:30.106Z,305
2023-01-03T06:30:30.168Z,272.5
2023-01-03T06:35:30.111Z,215
2023-01-03T06:40:36.240Z,225
2023-01-03T06:45:30.101Z,242.5
2023-01-03T06:50:30.092Z,250
2023-01-03T06:55:30.102Z,250
2023-01-03T07:00:30.152Z,227.5
2023-01-03T07:05:30.096Z,255
2023-01-03T07:10:30.171Z,240
2023-01-03T07:15:30.166Z,242.5
2023-01-03T07:20:30.089Z,245
2023-01-03T07:25:30.102Z,240
2023-01-03T07:30:30.092Z,245
2023-01-03T07:35:30.101Z,242.5
2023-01-03T07:40:30.102Z,257.5
2023-01-03T07:45:30.120Z,265
2023-01-03T07:50:30.092Z,260
2023-01-03T07:55:30.092Z,252.5
2023-01-03T08:00:30.103Z,247.5
2023-01-03T08:05:30.095Z,230
2023-01-03T08:10:30.091Z,227.5
2023-01-03T08:15:30.095Z,247.5
2023-01-03T08:20:30.091Z,242.5
2023-01-03T08:25:30.089Z,250
2023-01-03T08:30:30.093Z,255
2023-01-03T08:35:30.099Z,252.5
2023-01-03T08:40:30.091Z,247.5
2023-01-03T08:45:30.099Z,267.5
2023-01-03T08:50:30.112Z,270
2023-01-03T08:55:30.104Z,265
2023-01-03T09:00:30.081Z,250
2023-01-03T09:05:30.097Z,237.5
2023-01-03T09:10:30.094Z,270
2023-01-03T09:15:30.096Z,225
2023-01-03T09:20:30.084Z,235
2023-01-03T09:25:34.965Z,230
2023-01-03T09:30:30.104Z,220
2023-01-03T09:35:30.099Z,225
2023-01-03T09:40:30.095Z,215
2023-01-03T09:45:30.091Z,215
2023-01-03T09:50:44.036Z,217.5
2023-01-03T09:55:30.089Z,215
2023-01-03T10:00:30.151Z,202.5
2023-01-03T10:05:30.135Z,210
2023-01-03T10:10:30.142Z,215
2023-01-03T10:15:30.139Z,222.5
2023-01-03T10:20:33.043Z,215
2023-01-03T10:25:30.105Z,210
2023-01-03T10:30:30.091Z,215
2023-01-03T10:35:30.099Z,210
2023-01-03T10:40:30.087Z,185
2023-01-03T10:45:33.486Z,207.5
2023-01-03T10:50:30.087Z,195
2023-01-03T10:55:30.087Z,205
2023-01-03T11:00:30.094Z,222.5
2023-01-03T11:05:30.103Z,230
2023-01-03T11:10:30.084Z,237.5
2023-01-03T11:15:35.929Z,237.5
2023-01-03T11:20:30.088Z,232.5
2023-01-03T11:25:30.097Z,237.5
2023-01-03T11:30:30.085Z,220
2023-01-03T11:35:30.089Z,217.5
2023-01-03T11:40:30.108Z,215
2023-01-03T11:45:30.428Z,222.5
2023-01-03T11:50:30.089Z,230
2023-01-03T11:55:30.088Z,232.5
2023-01-03T12:00:30.095Z,240
2023-01-03T12:05:30.106Z,227.5
2023-01-03T12:10:30.099Z,210
2023-01-03T12:15:30.189Z,202.5
2023-01-03T12:20:30.106Z,220
2023-01-03T12:25:30.107Z,217.5
2023-01-03T12:30:30.092Z,210
2023-01-03T12:35:30.096Z,202.5
2023-01-03T12:40:30.096Z,220
2023-01-03T12:45:34.395Z,212.5
2023-01-03T12:50:30.088Z,225
2023-01-03T12:55:30.091Z,220
2023-01-03T13:00:30.087Z,217.5
2023-01-03T13:05:30.110Z,225
2023-01-03T13:10:30.092Z,247.5
2023-01-03T13:15:35.970Z,220
2023-01-03T13:20:30.099Z,222.5
2023-01-03T13:25:30.096Z,222.5
2023-01-03T13:30:30.087Z,212.5
2023-01-03T13:35:30.097Z,217.5
2023-01-03T13:45:30.103Z,217.5
2023-01-03T13:50:30.107Z,255
2023-01-03T13:55:30.097Z,242.5
2023-01-03T14:00:30.087Z,227.5
2023-01-03T14:05:30.097Z,225
2023-01-03T14:10:30.093Z,225
2023-01-03T14:15:30.096Z,235
2023-01-03T14:20:30.089Z,230
2023-01-03T14:25:30.084Z,230
2023-01-03T14:30:30.104Z,225
2023-01-03T14:35:30.119Z,227.5
2023-01-03T14:40:30.350Z,225
2023-01-03T14:45:30.103Z,220
2023-01-03T14:50:30.101Z,242.5
2023-01-03T14:55:30.102Z,240
2023-01-03T15:00:32.816Z,235
2023-01-03T15:05:30.094Z,227.5
2023-01-03T15:10:30.091Z,217.5
2023-01-03T15:15:30.104Z,220
2023-01-03T15:20:30.091Z,220
2023-01-03T15:25:30.099Z,240
2023-01-03T15:30:30.101Z,240
2023-01-03T15:35:30.148Z,245
2023-01-03T15:40:30.092Z,250
2023-01-03T15:45:30.153Z,237.5
2023-01-03T15:50:30.094Z,237.5
2023-01-03T15:55:30.094Z,225
2023-01-03T16:00:30.103Z,220
2023-01-03T16:05:30.102Z,215
2023-01-03T16:10:30.094Z,212.5
2023-01-03T16:15:30.101Z,215
2023-01-03T16:20:30.101Z,215
2023-01-03T16:25:30.096Z,235
2023-01-03T16:30:30.093Z,250
2023-01-03T16:35:30.114Z,257.5
2023-01-03T16:40:30.102Z,252.5
2023-01-03T16:45:30.172Z,260
2023-01-03T16:50:30.108Z,262.5
2023-01-03T16:55:30.101Z,265
2023-01-03T17:00:30.101Z,270
2023-01-03T17:05:30.093Z,270
2023-01-03T17:10:30.114Z,297.5
2023-01-03T17:15:30.091Z,320
2023-01-03T17:20:30.095Z,232.5
2023-01-03T17:25:30.099Z,215
2023-01-03T17:30:30.144Z,200
2023-01-03T17:35:30.093Z,192.5
2023-01-03T17:40:33.829Z,200
2023-01-03T17:45:30.099Z,195
2023-01-03T17:50:30.098Z,185
2023-01-03T17:55:30.123Z,185
2023-01-03T18:00:30.093Z,195
2023-01-03T18:05:30.114Z,190
2023-01-03T18:10:30.100Z,195
2023-01-03T18:15:30.107Z,215
2023-01-03T18:20:30.091Z,210
2023-01-03T18:25:30.097Z,210
2023-01-03T18:30:30.106Z,222.5
2023-01-03T18:35:37.406Z,215
2023-01-03T18:40:30.108Z,212.5
2023-01-03T18:45:30.093Z,212.5
2023-01-03T18:50:30.101Z,212.5
2023-01-03T18:55:30.090Z,210
2023-01-03T19:00:30.099Z,220
2023-01-03T19:05:30.112Z,230
2023-01-03T19:10:30.091Z,225
2023-01-03T19:15:30.222Z,235
2023-01-03T19:20:30.103Z,247.5
2023-01-03T19:25:30.115Z,250
2023-01-03T19:30:35.397Z,252.5
2023-01-03T19:35:30.103Z,262.5
2023-01-03T19:40:30.094Z,255
2023-01-03T19:45:30.097Z,250
2023-01-03T19:50:30.096Z,260
2023-01-03T19:55:30.092Z,262.5
2023-01-03T20:00:30.090Z,265
2023-01-03T20:05:30.095Z,260
2023-01-03T20:10:30.099Z,262.5
2023-01-03T20:15:30.101Z,220
2023-01-03T20:20:30.091Z,212.5
2023-01-03T20:25:30.096Z,222.5
2023-01-03T20:30:30.115Z,225
2023-01-03T20:40:30.088Z,240
2023-01-03T20:45:30.120Z,235
2023-01-03T20:50:30.102Z,237.5
2023-01-03T20:55:30.100Z,232.5
2023-01-03T21:00:30.175Z,230
2023-01-03T21:05:30.096Z,222.5
2023-01-03T21:10:30.096Z,237.5
2023-01-03T21:15:30.113Z,235
2023-01-03T21:20:30.087Z,237.5
2023-01-03T21:25:30.103Z,232.5
2023-01-03T21:30:30.110Z,235
2023-01-03T21:35:30.091Z,225
2023-01-03T21:40:30.105Z,220
2023-01-03T21:45:30.098Z,207.5
2023-01-03T21:50:30.104Z,200
2023-01-03T21:55:30.108Z,195
2023-01-03T22:00:30.129Z,205
2023-01-03T22:05:30.134Z,192.5
2023-01-03T22:10:30.100Z,185
2023-01-03T22:15:30.109Z,185
2023-01-03T22:20:34.748Z,187.5
2023-01-03T22:25:30.101Z,200
2023-01-03T22:30:30.106Z,210
2023-01-03T22:35:30.102Z,215
2023-01-03T22:40:30.099Z,217.5
2023-01-03T22:45:30.139Z,215
2023-01-03T22:50:30.092Z,215
2023-01-03T22:55:32.303Z,217.5
2023-01-03T23:00:30.092Z,212.5
2023-01-03T23:05:30.100Z,200
2023-01-03T23:10:30.109Z,190
2023-01-03T23:15:30.111Z,205
2023-01-03T23:20:30.104Z,207.5
2023-01-03T23:25:30.088Z,225
2023-01-03T23:30:30.155Z,235
2023-01-03T23:35:30.098Z,240
2023-01-03T23:40:30.092Z,230
2023-01-03T23:45:30.120Z,222.5
2023-01-03T23:50:30.103Z,225
2023-01-03T23:55:30.096Z,220
